Time;durP1;ratioP1;P1;durP2;ratioP2;P2;SDS_P1;SDS_P2;PMS_P1;PMS_P2;Temp;Humidity;BMP_temperature;BMP_pressure;BME280_temperature;BME280_humidity;BME280_pressure;Samples;Min_cycle;Max_cycle;Signal;HPM_P1;HPM_P2
2023/09/06 00:02:05;;;;;;;7.53;3.75;;;;;;;16.06;100.00;101076.25;5589178;31;33856;-70
2023/09/06 00:05:08;;;;;;;5.47;3.87;;;;;;;15.94;100.00;101072.38;5590010;31;33793;-70
2023/09/06 00:08:14;;;;;;;7.28;4.18;;;;;;;15.85;100.00;101074.34;5589988;31;34553;-70
2023/09/06 00:11:17;;;;;;;8.15;4.20;;;;;;;15.76;100.00;101077.28;5589905;31;33818;-70
2023/09/06 00:14:20;;;;;;;7.55;4.22;;;;;;;15.69;100.00;101079.84;5589901;31;34614;-70
2023/09/06 00:17:23;;;;;;;6.28;3.67;;;;;;;15.65;100.00;101076.72;5589097;31;33809;-70
2023/09/06 00:20:26;;;;;;;6.90;4.18;;;;;;;15.63;100.00;101076.09;5589776;31;33967;-70
2023/09/06 00:23:29;;;;;;;6.20;4.00;;;;;;;15.73;100.00;101066.97;5589827;31;33540;-70
2023/09/06 00:26:32;;;;;;;6.47;4.22;;;;;;;15.80;100.00;101071.37;5589806;31;33908;-70
2023/09/06 00:29:35;;;;;;;7.70;4.10;;;;;;;15.72;100.00;101074.16;5588953;31;34136;-70
2023/09/06 00:32:38;;;;;;;5.60;4.22;;;;;;;15.97;100.00;101069.34;5589944;31;34576;-70
2023/09/06 00:35:41;;;;;;;8.25;4.62;;;;;;;15.88;100.00;101062.41;5589659;31;34417;-70
2023/09/06 00:38:43;;;;;;;6.87;4.37;;;;;;;15.97;100.00;101064.00;5589707;31;33934;-70
2023/09/06 00:41:46;;;;;;;8.65;4.80;;;;;;;15.90;100.00;101079.97;5589737;31;34912;-70
2023/09/06 00:44:49;;;;;;;7.28;4.32;;;;;;;15.81;100.00;101069.53;5589508;31;34751;-70
2023/09/06 00:47:57;;;;;;;7.65;4.12;;;;;;;15.79;100.00;101077.75;5589624;31;33842;-70
2023/09/06 00:51:01;;;;;;;8.60;4.60;;;;;;;15.66;100.00;101072.22;5589617;31;34585;-70
2023/09/06 00:54:04;;;;;;;8.93;4.72;;;;;;;15.76;100.00;101083.47;5589525;31;34665;-71
2023/09/06 00:57:07;;;;;;;9.30;4.65;;;;;;;15.73;100.00;101075.00;5589481;31;34696;-70
2023/09/06 01:00:21;;;;;;;9.18;4.55;;;;;;;15.66;100.00;101077.56;5589377;31;34014;-70
2023/09/06 01:03:24;;;;;;;11.40;5.25;;;;;;;15.55;100.00;101068.13;5589364;31;33908;-70
2023/09/06 01:06:32;;;;;;;8.00;4.72;;;;;;;15.46;100.00;101074.56;5589328;31;34007;-70
2023/09/06 01:09:35;;;;;;;7.62;4.12;;;;;;;15.36;100.00;101067.81;5589727;31;33951;-70
2023/09/06 01:12:38;;;;;;;8.10;4.50;;;;;;;15.26;100.00;101073.41;5589574;31;34546;-70
2023/09/06 01:15:44;;;;;;;6.70;3.97;;;;;;;15.21;100.00;101076.63;5589303;31;33926;-70
2023/09/06 01:18:47;;;;;;;6.70;4.35;;;;;;;15.31;100.00;101073.69;5588980;31;33827;-70
2023/09/06 01:22:20;;;;;;;6.57;4.50;;;;;;;15.30;100.00;101079.25;5589245;31;33932;-69
2023/09/06 01:25:22;;;;;;;10.38;4.50;;;;;;;15.20;100.00;101074.97;5589385;31;33775;-70
2023/09/06 01:28:27;;;;;;;6.80;4.50;;;;;;;15.14;100.00;101081.06;5589022;31;34490;-70
2023/09/06 01:31:30;;;;;;;7.45;4.57;;;;;;;15.21;100.00;101084.66;5588945;31;34069;-70
2023/09/06 01:34:33;;;;;;;7.95;4.25;;;;;;;15.14;100.00;101077.53;5589041;31;33814;-70
2023/09/06 01:37:37;;;;;;;5.75;4.68;;;;;;;15.10;100.00;101084.25;5588981;31;33938;-70
2023/09/06 01:40:39;;;;;;;5.90;4.45;;;;;;;15.18;100.00;101078.84;5588960;31;33885;-70
2023/09/06 01:43:42;;;;;;;9.02;4.78;;;;;;;15.20;100.00;101082.97;5589040;31;33902;-70
2023/09/06 01:46:45;;;;;;;8.25;4.60;;;;;;;15.26;100.00;101089.44;5588632;31;34498;-70
2023/09/06 01:49:49;;;;;;;7.85;4.80;;;;;;;15.27;100.00;101088.44;5588807;31;33921;-70
2023/09/06 01:52:52;;;;;;;7.82;4.82;;;;;;;15.29;100.00;101081.09;5588045;31;33967;-70
2023/09/06 01:55:54;;;;;;;6.47;4.28;;;;;;;15.18;100.00;101082.34;5589038;31;34563;-70
2023/09/06 01:58:57;;;;;;;5.25;4.28;;;;;;;15.07;100.00;101076.59;5588680;31;34462;-70
2023/09/06 02:02:00;;;;;;;6.65;3.97;;;;;;;14.98;100.00;101094.53;5588562;31;34016;-70
2023/09/06 02:05:04;;;;;;;9.15;4.20;;;;;;;14.96;100.00;101085.84;5588920;31;32521;-70
2023/09/06 02:08:06;;;;;;;6.57;4.22;;;;;;;14.96;100.00;101093.06;5588896;31;33854;-70
2023/09/06 02:11:09;;;;;;;5.93;4.00;;;;;;;14.90;100.00;101091.94;5588447;31;34502;-70
2023/09/06 02:14:12;;;;;;;8.55;4.12;;;;;;;14.90;100.00;101083.09;5587902;31;34437;-70
2023/09/06 02:17:15;;;;;;;7.85;4.40;;;;;;;14.85;100.00;101085.47;5588308;31;34842;-70
2023/09/06 02:20:21;;;;;;;5.60;4.45;;;;;;;14.83;100.00;101087.47;5588572;31;33951;-70
2023/09/06 02:23:24;;;;;;;6.70;4.40;;;;;;;14.92;100.00;101083.72;5588232;31;33882;-70
2023/09/06 02:26:29;;;;;;;5.75;4.22;;;;;;;14.90;100.00;101080.41;5588505;31;34102;-70
2023/09/06 02:29:32;;;;;;;8.32;4.30;;;;;;;14.84;100.00;101086.47;5587522;31;33799;-70
2023/09/06 02:32:35;;;;;;;8.38;4.00;;;;;;;14.78;100.00;101077.31;5590660;31;34020;-69
2023/09/06 02:35:41;;;;;;;6.85;4.30;;;;;;;14.77;100.00;101081.81;5591095;31;33784;-70
2023/09/06 02:38:44;;;;;;;9.63;4.28;;;;;;;14.81;100.00;101086.84;5590729;31;34500;-70
2023/09/06 02:41:49;;;;;;;7.53;4.30;;;;;;;14.81;100.00;101079.66;5590742;31;34058;-70
2023/09/06 02:44:53;;;;;;;5.87;4.18;;;;;;;14.83;100.00;101082.13;5590602;31;33830;-70
2023/09/06 02:47:56;;;;;;;8.43;4.37;;;;;;;14.74;100.00;101084.03;5590892;31;34521;-69
2023/09/06 02:50:59;;;;;;;6.70;4.18;;;;;;;14.75;100.00;101086.53;5590628;31;33884;-70
2023/09/06 02:54:02;;;;;;;7.43;4.32;;;;;;;14.82;100.00;101086.62;5590688;31;33748;-69
2023/09/06 02:57:05;;;;;;;7.78;4.53;;;;;;;14.74;100.00;101084.87;5590538;31;33918;-70
2023/09/06 03:00:24;;;;;;;6.72;4.47;;;;;;;14.67;100.00;101088.41;5590510;31;34625;-69
2023/09/06 03:03:28;;;;;;;9.07;4.50;;;;;;;14.60;100.00;101080.28;5590467;31;34070;-70
2023/09/06 03:06:33;;;;;;;6.55;4.15;;;;;;;14.71;100.00;101081.72;5590433;31;33993;-70
2023/09/06 03:09:38;;;;;;;6.10;4.22;;;;;;;14.68;100.00;101082.06;5589714;31;34479;-70
2023/09/06 03:12:43;;;;;;;6.57;4.57;;;;;;;14.64;100.00;101083.44;5590749;31;33807;-70
2023/09/06 03:15:51;;;;;;;8.82;5.15;;;;;;;14.50;100.00;101081.50;5590537;31;33919;-69
2023/09/06 03:18:54;;;;;;;6.87;4.57;;;;;;;14.48;100.00;101083.50;5590502;31;34544;-69
2023/09/06 03:21:57;;;;;;;6.60;4.32;;;;;;;14.51;100.00;101077.84;5590260;31;33920;-70
2023/09/06 03:25:02;;;;;;;7.53;4.50;;;;;;;14.43;100.00;101089.38;5590378;31;33844;-70
2023/09/06 03:28:08;;;;;;;8.05;4.68;;;;;;;14.39;100.00;101088.06;5590159;31;34721;-70
2023/09/06 03:31:13;;;;;;;5.43;4.20;;;;;;;14.34;100.00;101083.22;5590367;31;33847;-70
2023/09/06 03:34:16;;;;;;;7.15;4.82;;;;;;;14.32;100.00;101079.94;5590165;31;34028;-70
2023/09/06 03:37:19;;;;;;;7.62;4.85;;;;;;;14.30;100.00;101081.09;5590267;31;33972;-70
2023/09/06 03:40:37;;;;;;;8.50;5.00;;;;;;;14.27;100.00;101081.44;5590492;31;34743;-68
2023/09/06 03:43:40;;;;;;;6.82;4.43;;;;;;;14.28;100.00;101089.25;5590202;31;34585;-68
2023/09/06 03:46:43;;;;;;;7.28;4.75;;;;;;;14.28;100.00;101085.78;5589937;31;33917;-68
2023/09/06 03:49:46;;;;;;;7.68;4.70;;;;;;;14.26;100.00;101088.63;5590085;31;33992;-68
2023/09/06 03:52:50;;;;;;;6.35;4.30;;;;;;;14.23;100.00;101088.16;5590169;31;33805;-68
2023/09/06 03:55:58;;;;;;;7.25;4.30;;;;;;;14.18;100.00;101095.84;5589945;31;33759;-68
2023/09/06 03:59:04;;;;;;;6.30;4.32;;;;;;;14.25;100.00;101102.13;5589833;31;34555;-67
2023/09/06 04:02:08;;;;;;;6.28;3.92;;;;;;;14.31;100.00;101098.78;5589867;31;34189;-68
2023/09/06 04:05:11;;;;;;;7.10;4.60;;;;;;;14.28;100.00;101091.94;5589840;31;34049;-67
2023/09/06 04:08:17;;;;;;;5.80;4.50;;;;;;;14.24;100.00;101092.47;5590114;31;34470;-68
2023/09/06 04:11:26;;;;;;;6.12;4.45;;;;;;;14.22;100.00;101097.16;5589908;31;34838;-68
2023/09/06 04:14:29;;;;;;;6.87;4.32;;;;;;;14.15;100.00;101099.66;5589749;31;34923;-69
2023/09/06 04:17:32;;;;;;;6.47;4.30;;;;;;;14.15;100.00;101097.00;5589930;31;33804;-69
2023/09/06 04:20:36;;;;;;;6.93;4.25;;;;;;;14.22;100.00;101105.16;5589889;31;34925;-69
2023/09/06 04:23:40;;;;;;;7.72;4.32;;;;;;;14.19;100.00;101100.16;5589787;31;34560;-68
2023/09/06 04:26:43;;;;;;;7.93;4.35;;;;;;;14.22;100.00;101110.50;5588989;31;33912;-68
2023/09/06 04:29:46;;;;;;;7.95;4.72;;;;;;;14.27;100.00;101114.31;5589739;31;33910;-70
2023/09/06 04:32:50;;;;;;;7.25;4.55;;;;;;;14.30;100.00;101116.62;5589680;31;33757;-69
2023/09/06 04:35:54;;;;;;;8.27;4.18;;;;;;;14.32;100.00;101114.63;5589524;31;34757;-69
2023/09/06 04:38:58;;;;;;;6.25;4.40;;;;;;;14.38;100.00;101120.31;5588523;31;33825;-69
2023/09/06 04:42:01;;;;;;;5.72;4.10;;;;;;;14.41;100.00;101125.28;5589333;31;34431;-69
2023/09/06 04:45:05;;;;;;;7.55;4.35;;;;;;;14.48;100.00;101123.56;5589508;31;33854;-69
2023/09/06 04:48:12;;;;;;;7.80;4.60;;;;;;;14.48;100.00;101132.41;5589347;31;33903;-69
2023/09/06 04:51:15;;;;;;;7.15;4.35;;;;;;;14.55;100.00;101130.72;5589912;31;33872;-68
2023/09/06 04:54:18;;;;;;;6.30;4.10;;;;;;;14.66;100.00;101134.84;5588618;31;33905;-69
2023/09/06 04:57:21;;;;;;;6.75;4.40;;;;;;;14.68;100.00;101130.97;5589439;31;34589;-68
2023/09/06 05:00:24;;;;;;;6.22;4.20;;;;;;;14.74;100.00;101130.28;5588291;31;33995;-68
2023/09/06 05:03:27;;;;;;;8.93;4.05;;;;;;;14.77;100.00;101137.09;5589304;31;34690;-68
2023/09/06 05:06:30;;;;;;;4.90;4.12;;;;;;;14.85;100.00;101142.41;5588926;31;34091;-68
2023/09/06 05:09:34;;;;;;;10.52;4.37;;;;;;;14.92;100.00;101139.81;5589217;31;34046;-69
2023/09/06 05:12:38;;;;;;;6.12;4.00;;;;;;;14.99;100.00;101138.13;5589040;31;34953;-68
2023/09/06 05:15:40;;;;;;;5.25;4.10;;;;;;;15.01;100.00;101144.94;5589075;31;33782;-68
2023/09/06 05:18:44;;;;;;;10.48;4.07;;;;;;;15.07;100.00;101154.09;5588961;31;34063;-69
2023/09/06 05:21:52;;;;;;;11.65;4.07;;;;;;;15.17;100.00;101141.31;5589035;31;34093;-68
2023/09/06 05:24:57;;;;;;;7.95;4.53;;;;;;;15.26;100.00;101148.25;5588917;31;33976;-68
2023/09/06 05:28:05;;;;;;;8.30;4.47;;;;;;;15.31;100.00;101148.56;5588765;31;33806;-69
2023/09/06 05:31:09;;;;;;;9.35;4.18;;;;;;;15.44;100.00;101153.31;5588635;31;35030;-69
2023/09/06 05:34:12;;;;;;;7.72;4.32;;;;;;;15.56;100.00;101152.72;5588786;31;33922;-69
2023/09/06 05:37:14;;;;;;;11.23;3.85;;;;;;;15.65;100.00;101156.13;5588658;31;34055;-69
2023/09/06 05:40:26;;;;;;;7.12;3.85;;;;;;;15.69;100.00;101149.41;5588359;31;33801;-69
2023/09/06 05:43:29;;;;;;;6.87;3.75;;;;;;;15.79;100.00;101144.63;5588644;31;33810;-68
2023/09/06 05:46:32;;;;;;;8.43;3.80;;;;;;;15.89;100.00;101144.34;5588296;31;33941;-69
2023/09/06 05:49:36;;;;;;;11.50;4.12;;;;;;;15.97;100.00;101153.16;5588239;31;33832;-68
2023/09/06 05:52:39;;;;;;;8.25;3.90;;;;;;;16.07;100.00;101148.31;5588215;31;34138;-69
2023/09/06 05:55:42;;;;;;;10.60;3.90;;;;;;;16.13;100.00;101159.31;5587722;31;34351;-69
2023/09/06 05:58:47;;;;;;;9.48;4.05;;;;;;;16.31;100.00;101151.75;5588455;31;34890;-67
2023/09/06 06:01:51;;;;;;;7.22;4.05;;;;;;;16.44;100.00;101146.56;5587997;31;33073;-68
2023/09/06 06:04:56;;;;;;;7.65;3.83;;;;;;;16.70;100.00;101162.16;5588819;31;33834;-68
2023/09/06 06:07:59;;;;;;;8.95;3.70;;;;;;;16.83;100.00;101147.06;5590534;31;34138;-68
2023/09/06 06:11:02;;;;;;;7.05;4.18;;;;;;;16.93;100.00;101152.09;5590828;31;34095;-68
2023/09/06 06:14:04;;;;;;;11.60;4.03;;;;;;;17.04;100.00;101150.78;5590058;31;34771;-67
2023/09/06 06:17:13;;;;;;;12.18;4.20;;;;;;;17.10;100.00;101150.81;5590169;31;35426;-69
2023/09/06 06:20:17;;;;;;;9.50;4.00;;;;;;;17.30;100.00;101161.72;5590522;31;34040;-69
2023/09/06 06:23:32;;;;;;;7.80;3.90;;;;;;;17.39;100.00;101165.94;5589998;31;34028;-67
2023/09/06 06:26:35;;;;;;;7.62;3.30;;;;;;;17.58;100.00;101161.75;5590278;31;34163;-68
2023/09/06 06:29:38;;;;;;;6.90;3.70;;;;;;;17.62;100.00;101161.22;5589559;31;33810;-67
2023/09/06 06:32:41;;;;;;;8.52;3.65;;;;;;;17.76;100.00;101171.03;5590065;31;34582;-68
2023/09/06 06:35:44;;;;;;;14.45;3.97;;;;;;;18.22;100.00;101175.87;5590872;31;33947;-68
2023/09/06 06:38:47;;;;;;;9.18;3.65;;;;;;;19.04;100.00;101179.31;5589389;31;34810;-69
2023/09/06 06:41:50;;;;;;;10.43;3.67;;;;;;;19.91;100.00;101178.34;5590205;31;33942;-70
2023/09/06 06:44:53;;;;;;;8.45;3.70;;;;;;;20.79;100.00;101180.38;5590177;31;34302;-69
2023/09/06 06:47:56;;;;;;;6.55;3.20;;;;;;;21.09;100.00;101188.72;5590585;31;33898;-69
2023/09/06 06:51:00;;;;;;;15.70;3.70;;;;;;;21.00;100.00;101189.19;5590845;31;33903;-69
2023/09/06 06:54:06;;;;;;;8.18;3.37;;;;;;;21.79;100.00;101192.16;5590178;31;33963;-69
2023/09/06 06:57:09;;;;;;;9.13;3.28;;;;;;;21.49;100.00;101188.50;5589352;31;34613;-70
2023/09/06 07:00:12;;;;;;;8.50;3.25;;;;;;;23.10;82.93;101202.53;5590185;31;34031;-70
2023/09/06 07:03:16;;;;;;;9.30;2.90;;;;;;;22.61;85.77;101196.28;5590123;31;33921;-69
2023/09/06 07:06:19;;;;;;;9.27;3.08;;;;;;;22.99;82.03;101201.47;5590109;31;35330;-69
2023/09/06 07:09:21;;;;;;;6.62;2.83;;;;;;;23.05;80.90;101195.12;5589986;31;34114;-70
2023/09/06 07:12:24;;;;;;;10.70;3.30;;;;;;;23.78;73.51;101198.38;5590135;31;33805;-70
2023/09/06 07:15:27;;;;;;;6.18;3.00;;;;;;;24.53;66.81;101189.50;5589982;31;33963;-70
2023/09/06 07:18:31;;;;;;;8.20;2.60;;;;;;;24.63;67.07;101190.53;5589942;31;33895;-70
2023/09/06 07:21:34;;;;;;;7.30;2.72;;;;;;;25.03;61.74;101192.41;5589200;31;33891;-71
2023/09/06 07:24:37;;;;;;;10.13;3.22;;;;;;;25.55;59.89;101187.66;5590447;31;34043;-71
2023/09/06 07:27:40;;;;;;;12.73;3.53;;;;;;;26.37;55.72;101182.34;5589221;31;33974;-72
2023/09/06 07:30:43;;;;;;;9.52;2.75;;;;;;;26.65;54.96;101186.78;5590020;31;34469;-71
2023/09/06 07:33:46;;;;;;;9.20;2.80;;;;;;;27.20;52.73;101186.59;5589959;31;33922;-70
2023/09/06 07:36:49;;;;;;;11.68;3.10;;;;;;;27.55;51.63;101186.09;5589854;31;33904;-70
2023/09/06 07:39:52;;;;;;;10.27;2.80;;;;;;;25.99;54.48;101185.06;5589727;31;34233;-71
2023/09/06 07:42:55;;;;;;;9.35;3.05;;;;;;;27.22;51.48;101184.41;5589659;31;34630;-70
2023/09/06 07:45:58;;;;;;;6.43;3.08;;;;;;;27.73;50.52;101190.34;5589472;31;33871;-72
2023/09/06 07:49:02;;;;;;;43.63;4.03;;;;;;;28.20;50.51;101190.38;5590186;31;33936;-71
2023/09/06 07:52:05;;;;;;;12.13;3.35;;;;;;;29.74;45.76;101190.22;5589077;31;33941;-74
2023/09/06 07:55:09;;;;;;;8.13;3.10;;;;;;;26.90;50.66;101183.56;5589851;31;33807;-70
2023/09/06 07:58:12;;;;;;;12.45;3.12;;;;;;;28.06;47.98;101193.56;5589976;31;34056;-70
2023/09/06 08:01:15;;;;;;;12.60;3.62;;;;;;;27.89;48.44;101183.88;5589627;31;34572;-70
2023/09/06 08:04:21;;;;;;;25.08;3.53;;;;;;;28.36;47.95;101189.37;5589894;31;34960;-71
2023/09/06 08:07:24;;;;;;;5.75;3.08;;;;;;;28.95;46.80;101189.87;5589652;31;34024;-71
2023/09/06 08:10:27;;;;;;;8.77;3.25;;;;;;;28.12;47.05;101199.91;5590015;31;34015;-70
2023/09/06 08:13:30;;;;;;;6.37;2.83;;;;;;;27.68;48.80;101193.84;5588890;31;33872;-71
2023/09/06 08:16:33;;;;;;;12.00;2.60;;;;;;;28.38;47.24;101203.56;5589733;31;33819;-71
2023/09/06 08:19:36;;;;;;;15.57;2.97;;;;;;;28.71;45.87;101203.19;5589595;31;33932;-72
2023/09/06 08:22:40;;;;;;;7.55;2.67;;;;;;;29.21;45.94;101199.75;5589775;31;33904;-71
2023/09/06 08:25:47;;;;;;;8.40;2.58;;;;;;;28.83;46.09;101198.31;5588850;31;33822;-72
2023/09/06 08:28:53;;;;;;;12.98;3.10;;;;;;;29.67;44.22;101202.56;5588259;31;34611;-70
2023/09/06 08:31:55;;;;;;;12.23;2.62;;;;;;;29.20;44.97;101200.03;5589569;31;33862;-72
2023/09/06 08:34:59;;;;;;;12.63;3.03;;;;;;;29.46;43.81;101198.16;5589802;31;33959;-72
2023/09/06 08:38:02;;;;;;;6.45;2.72;;;;;;;31.66;39.95;101204.19;5589450;31;33819;-71
2023/09/06 08:41:07;;;;;;;8.52;2.80;;;;;;;30.73;41.15;101199.56;5589447;31;34048;-71
2023/09/06 08:44:11;;;;;;;9.48;2.72;;;;;;;29.28;43.78;101192.13;5589212;31;34482;-71
2023/09/06 08:47:19;;;;;;;8.20;2.75;;;;;;;31.37;40.45;101193.16;5588558;31;33900;-71
2023/09/06 08:50:23;;;;;;;9.88;2.85;;;;;;;30.95;39.97;101182.72;5589547;31;34875;-71
2023/09/06 08:53:27;;;;;;;6.37;2.50;;;;;;;29.65;44.00;101174.62;5588432;31;33900;-71
2023/09/06 08:56:34;;;;;;;7.60;2.75;;;;;;;30.72;41.76;101181.47;5575080;31;33924;-71
2023/09/06 08:59:38;;;;;;;17.63;2.90;;;;;;;31.10;40.94;101190.88;5588480;31;34813;-71
2023/09/06 09:02:46;;;;;;;35.38;3.33;;;;;;;33.26;37.24;101179.72;5589129;31;33757;-71
2023/09/06 09:05:49;;;;;;;7.90;2.75;;;;;;;30.42;41.22;101179.66;5589089;31;33798;-71
2023/09/06 09:08:52;;;;;;;7.22;3.00;;;;;;;27.50;47.54;101178.69;5589103;31;33955;-72
2023/09/06 09:11:56;;;;;;;10.05;2.75;;;;;;;26.76;49.56;101173.03;5588706;31;34056;-71
2023/09/06 09:14:58;;;;;;;13.02;2.92;;;;;;;26.01;52.07;101172.03;5589369;31;33805;-70
2023/09/06 09:18:19;;;;;;;9.63;3.10;;;;;;;25.60;53.64;101168.72;5589581;31;33954;-69
2023/09/06 09:21:22;;;;;;;14.75;3.20;;;;;;;25.31;55.03;101173.38;5587863;31;34565;-70
2023/09/06 09:24:30;;;;;;;8.95;3.17;;;;;;;25.06;57.04;101171.03;5588683;31;34521;-68
2023/09/06 09:27:33;;;;;;;26.60;3.83;;;;;;;24.86;57.38;101167.91;5588892;31;33816;-69
2023/09/06 09:30:36;;;;;;;8.27;2.97;;;;;;;24.58;60.11;101163.28;5588787;31;34720;-68
2023/09/06 09:33:39;;;;;;;7.95;2.95;;;;;;;24.35;59.77;101160.62;5589038;31;34513;-68
2023/09/06 09:36:50;;;;;;;10.25;3.35;;;;;;;24.39;60.17;101155.56;5588940;31;34528;-67
2023/09/06 09:39:56;;;;;;;9.80;3.40;;;;;;;24.25;60.12;101157.72;5588279;31;33975;-69
2023/09/06 09:43:07;;;;;;;6.40;3.15;;;;;;;24.12;60.68;101149.81;5588588;31;34968;-69
2023/09/06 09:46:10;;;;;;;12.52;3.42;;;;;;;24.14;60.68;101147.69;5587917;31;33952;-67
2023/09/06 09:49:13;;;;;;;9.93;3.30;;;;;;;24.17;60.58;101147.22;5588637;31;34648;-67
2023/09/06 09:52:17;;;;;;;7.47;2.78;;;;;;;24.23;59.52;101143.56;5590138;31;34840;-69
2023/09/06 09:55:31;;;;;;;9.55;3.20;;;;;;;24.27;58.96;101138.50;5588823;31;33222;-66
2023/09/06 09:58:37;;;;;;;6.72;2.87;;;;;;;24.30;60.04;101130.72;5588770;31;34562;-67
2023/09/06 10:01:41;;;;;;;9.07;2.60;;;;;;;24.55;56.22;101142.06;5588972;31;34077;-68
2023/09/06 10:04:49;;;;;;;11.82;2.78;;;;;;;24.62;56.41;101129.19;5589023;31;33863;-69
2023/09/06 10:07:54;;;;;;;7.55;2.87;;;;;;;24.75;56.43;101124.53;5587580;31;32721;-69
2023/09/06 10:10:57;;;;;;;15.85;2.70;;;;;;;24.63;56.22;101124.59;5588238;31;34193;-68
2023/09/06 10:14:03;;;;;;;8.75;3.08;;;;;;;24.54;56.74;101121.44;5587884;31;34761;-67
2023/09/06 10:17:10;;;;;;;9.35;3.00;;;;;;;24.61;55.89;101121.28;5587961;31;33805;-68
2023/09/06 10:20:23;;;;;;;8.52;2.90;;;;;;;24.50;56.48;101122.13;5587588;31;33966;-68
2023/09/06 10:23:30;;;;;;;9.73;3.20;;;;;;;24.57;56.49;101122.84;5587994;31;34568;-69
2023/09/06 10:26:40;;;;;;;9.93;3.30;;;;;;;24.86;56.57;101112.78;5587281;31;33955;-67
2023/09/06 10:29:53;;;;;;;6.62;3.08;;;;;;;24.90;54.48;101106.66;5587258;31;33895;-69
2023/09/06 10:33:08;;;;;;;9.60;2.62;;;;;;;25.14;52.97;101106.50;5587947;31;33894;-68
2023/09/06 10:36:12;;;;;;;4.35;2.50;;;;;;;25.35;51.69;101111.22;5587490;31;33883;-69
2023/09/06 10:39:16;;;;;;;5.82;2.72;;;;;;;25.57;50.78;101116.75;5587514;31;33980;-68
2023/09/06 10:42:22;;;;;;;6.90;2.60;;;;;;;25.76;49.61;101109.97;5587553;31;34590;-68
2023/09/06 10:45:25;;;;;;;4.75;2.62;;;;;;;26.28;49.15;101107.72;5587648;31;34289;-68
2023/09/06 10:48:29;;;;;;;6.87;2.50;;;;;;;27.17;44.99;101114.34;5587484;31;34657;-68
2023/09/06 10:51:33;;;;;;;7.12;2.45;;;;;;;29.44;38.37;101112.84;5587656;31;34501;-69
2023/09/06 10:54:41;;;;;;;6.22;2.42;;;;;;;33.55;34.04;101117.84;5591535;31;33877;-69
2023/09/06 10:57:49;;;;;;;7.03;2.10;;;;;;;36.33;29.64;101124.22;5590600;31;33777;-69
2023/09/06 11:01:18;;;;;;;5.32;1.90;;;;;;;36.15;27.40;101112.34;5590748;31;34205;-70
2023/09/06 11:04:26;;;;;;;2.50;1.90;;;;;;;38.93;24.60;101112.00;5590455;31;34615;-69
2023/09/06 11:07:45;;;;;;;4.47;2.10;;;;;;;39.34;23.18;101111.94;5590616;31;33884;-70
2023/09/06 11:10:58;;;;;;;3.85;2.20;;;;;;;40.52;22.16;101113.84;5590499;31;34089;-71
2023/09/06 11:14:02;;;;;;;6.55;2.33;;;;;;;39.78;22.61;101109.50;5590309;31;34535;-70
2023/09/06 11:17:04;;;;;;;4.22;1.80;;;;;;;37.80;24.12;101097.25;5590304;31;34057;-70
2023/09/06 11:20:13;;;;;;;3.75;1.90;;;;;;;39.53;22.68;101095.56;5590359;31;33839;-71
2023/09/06 11:23:16;;;;;;;3.05;1.92;;;;;;;37.13;24.62;101094.34;5589988;31;33834;-70
2023/09/06 11:26:19;;;;;;;3.15;1.80;;;;;;;37.78;23.70;101085.69;5592223;31;34649;-70
2023/09/06 11:29:26;;;;;;;3.78;1.92;;;;;;;36.42;25.01;101088.31;5589949;31;34671;-70
2023/09/06 11:32:29;;;;;;;3.35;1.95;;;;;;;39.87;21.96;101088.78;5590334;31;33861;-70
2023/09/06 11:35:38;;;;;;;2.95;1.95;;;;;;;42.17;19.50;101088.84;5590195;31;34419;-70
2023/09/06 11:38:43;;;;;;;3.47;2.00;;;;;;;39.94;21.79;101074.31;5590437;31;33902;-70
2023/09/06 11:41:47;;;;;;;3.15;1.80;;;;;;;38.99;22.26;101071.81;5590212;31;33935;-70
2023/09/06 11:44:53;;;;;;;4.12;1.80;;;;;;;41.86;20.32;101061.84;5590005;31;35198;-69
2023/09/06 11:47:59;;;;;;;2.53;1.85;;;;;;;43.08;18.96;101063.28;5590059;31;34015;-70
2023/09/06 11:51:13;;;;;;;2.22;1.70;;;;;;;41.77;19.74;101060.41;5590210;31;33854;-70
2023/09/06 11:54:16;;;;;;;3.42;1.77;;;;;;;42.33;19.51;101055.34;5590223;31;33839;-70
2023/09/06 11:57:26;;;;;;;3.05;1.60;;;;;;;36.79;24.13;101051.75;5589791;31;33448;-70
2023/09/06 12:00:43;;;;;;;5.68;1.90;;;;;;;39.21;22.13;101045.62;5590135;31;34574;-69
2023/09/06 12:03:47;;;;;;;4.37;1.75;;;;;;;40.48;20.91;101046.16;5589855;31;33827;-70
2023/09/06 12:06:51;;;;;;;2.00;1.70;;;;;;;43.34;18.29;101038.19;5589922;31;34568;-69
2023/09/06 12:10:00;;;;;;;3.05;1.80;;;;;;;38.90;22.04;101037.78;5589847;31;33936;-69
2023/09/06 12:13:06;;;;;;;4.00;2.03;;;;;;;42.91;18.38;101037.41;5589653;31;33903;-69
2023/09/06 12:16:11;;;;;;;3.28;1.90;;;;;;;41.17;19.33;101040.19;5589888;31;34439;-69
2023/09/06 12:19:16;;;;;;;4.00;1.90;;;;;;;41.62;19.40;101025.81;5588709;31;35146;-71
2023/09/06 12:22:19;;;;;;;2.10;1.70;;;;;;;45.97;15.99;101033.72;5590017;31;34050;-69
2023/09/06 12:25:23;;;;;;;5.78;1.83;;;;;;;43.97;17.22;101020.84;5589006;31;34797;-69
2023/09/06 12:28:28;;;;;;;3.70;2.05;;;;;;;44.22;17.01;101023.97;5589730;31;34050;-69
2023/09/06 12:31:32;;;;;;;5.45;1.75;;;;;;;45.22;16.34;101024.72;5589878;31;34022;-70
2023/09/06 12:34:35;;;;;;;7.10;2.03;;;;;;;45.12;16.44;101025.47;5589920;31;33864;-70
2023/09/06 12:37:39;;;;;;;3.45;1.85;;;;;;;43.16;17.14;101017.53;5589736;31;33783;-70
2023/09/06 12:40:42;;;;;;;4.55;1.70;;;;;;;43.57;17.40;101008.28;5589725;31;33866;-69
2023/09/06 12:43:46;;;;;;;3.78;1.85;;;;;;;41.00;18.22;101004.31;5589446;31;34518;-69
2023/09/06 12:46:49;;;;;;;2.58;1.67;;;;;;;42.71;17.74;101001.53;5589783;31;34545;-69
2023/09/06 12:49:52;;;;;;;2.70;1.62;;;;;;;43.35;16.63;101000.69;5589132;31;34048;-69
2023/09/06 12:52:55;;;;;;;2.42;1.70;;;;;;;45.38;15.20;100991.62;5589917;31;34594;-68
2023/09/06 12:55:58;;;;;;;4.30;1.92;;;;;;;42.96;17.43;100988.03;5589674;31;33822;-69
2023/09/06 12:59:00;;;;;;;3.10;1.80;;;;;;;42.27;17.43;100987.09;5589488;31;34810;-69
2023/09/06 13:02:04;;;;;;;3.40;1.80;;;;;;;42.53;17.40;100981.66;5589427;31;33891;-69
2023/09/06 13:05:08;;;;;;;3.05;1.90;;;;;;;44.81;15.87;100987.53;5589250;31;33797;-70
2023/09/06 13:08:11;;;;;;;4.62;1.77;;;;;;;43.04;16.71;100968.22;5589232;31;34363;-70
2023/09/06 13:11:14;;;;;;;2.92;2.00;;;;;;;47.23;13.74;100978.34;5589126;31;34567;-70
2023/09/06 13:14:16;;;;;;;4.45;2.03;;;;;;;43.94;15.98;100963.69;5587806;31;33826;-70
2023/09/06 13:17:19;;;;;;;5.62;2.10;;;;;;;44.01;15.60;100971.38;5589154;31;34476;-69
2023/09/06 13:20:22;;;;;;;5.97;1.92;;;;;;;45.30;15.28;100961.97;5589022;31;34708;-70
2023/09/06 13:23:25;;;;;;;3.53;1.90;;;;;;;45.01;15.33;100963.72;5588280;31;34768;-70
2023/09/06 13:26:28;;;;;;;2.78;2.00;;;;;;;48.29;13.53;100969.66;5589468;31;33839;-68
2023/09/06 13:29:33;;;;;;;3.08;1.90;;;;;;;43.24;15.89;100961.41;5588858;31;33903;-69
2023/09/06 13:32:36;;;;;;;3.72;2.10;;;;;;;40.94;17.99;100955.66;5588669;31;33957;-69
2023/09/06 13:35:39;;;;;;;6.85;1.98;;;;;;;40.54;18.42;100948.19;5588655;31;34497;-68
2023/09/06 13:38:41;;;;;;;4.28;2.20;;;;;;;38.79;20.02;100945.03;5588490;31;33784;-69
2023/09/06 13:41:44;;;;;;;5.40;1.90;;;;;;;41.10;18.14;100937.81;5588708;31;33844;-69
2023/09/06 13:44:47;;;;;;;5.22;2.15;;;;;;;40.71;17.94;100939.56;5588529;31;33874;-69
2023/09/06 13:47:50;;;;;;;7.55;2.22;;;;;;;41.61;17.66;100938.66;5588791;31;33916;-70
2023/09/06 13:50:53;;;;;;;38.17;2.85;;;;;;;42.77;16.81;100941.44;5588365;31;34023;-69
2023/09/06 13:53:56;;;;;;;9.77;2.33;;;;;;;42.82;16.31;100939.16;5588327;31;34653;-69
2023/09/06 13:56:59;;;;;;;4.30;2.10;;;;;;;44.03;16.23;100927.06;5588336;31;33850;-69
2023/09/06 14:00:05;;;;;;;32.85;3.10;;;;;;;45.49;15.19;100930.09;5588472;31;34604;-70
2023/09/06 14:03:08;;;;;;;5.32;2.17;;;;;;;46.22;14.62;100928.87;5588347;31;33820;-69
2023/09/06 14:06:11;;;;;;;2.97;2.00;;;;;;;45.10;14.99;100927.00;5588279;31;34037;-70
2023/09/06 14:09:14;;;;;;;52.70;3.45;;;;;;;41.00;18.10;100918.84;5587808;31;34181;-69
2023/09/06 14:12:17;;;;;;;8.82;2.15;;;;;;;41.38;17.81;100918.19;5586932;31;34504;-68